createdAt,value
2016-06-25T00:00:29.049Z,22.33
2016-06-25T00:01:29.061Z,22.37
2016-06-25T00:02:27.833Z,22.39
2016-06-25T00:03:29.055Z,22.3
2016-06-25T00:04:28.454Z,22.24
2016-06-25T00:05:28.455Z,22.33
2016-06-25T00:06:28.454Z,22.33
2016-06-25T00:07:28.455Z,22.39
2016-06-25T00:08:27.850Z,22.24
2016-06-25T00:09:27.848Z,22.3
2016-06-25T00:10:28.462Z,22.24
2016-06-25T00:11:27.865Z,22.24
2016-06-25T00:12:28.474Z,22.24
2016-06-25T00:13:29.079Z,22.24
2016-06-25T00:14:28.457Z,22.22
2016-06-25T00:15:29.075Z,22.24
2016-06-25T00:16:27.869Z,22.2
2016-06-25T00:17:28.726Z,22.2
2016-06-25T00:18:27.901Z,22.17
2016-06-25T00:19:29.093Z,22.17
2016-06-25T00:20:28.485Z,22.14
2016-06-25T00:21:28.487Z,22.15
2016-06-25T00:22:28.493Z,22.09
2016-06-25T00:23:27.881Z,22.05
2016-06-25T00:24:29.108Z,22.05
2016-06-25T00:25:28.494Z,22.05
2016-06-25T00:26:29.099Z,21.99
2016-06-25T00:28:29.309Z,21.96
2016-06-25T00:29:28.531Z,22
2016-06-25T00:30:29.794Z,21.98
2016-06-25T00:31:29.532Z,21.92
2016-06-25T00:32:29.180Z,21.92
2016-06-25T00:33:28.243Z,21.96
2016-06-25T00:34:27.902Z,21.92
2016-06-25T00:35:28.668Z,21.96
2016-06-25T00:36:27.914Z,21.88
2016-06-25T00:37:31.160Z,21.83
2016-06-25T00:38:31.113Z,21.96
2016-06-25T00:39:29.707Z,21.77
2016-06-25T00:40:28.856Z,21.8
2016-06-25T00:41:28.690Z,21.91
2016-06-25T00:42:28.489Z,21.82
2016-06-25T00:43:28.535Z,21.84
2016-06-25T00:44:28.617Z,21.83
2016-06-25T00:45:29.037Z,21.82
2016-06-25T00:46:28.732Z,21.82
2016-06-25T00:48:28.541Z,21.75
2016-06-25T00:49:28.606Z,21.61
2016-06-25T00:50:28.544Z,21.62
2016-06-25T00:51:29.469Z,21.65
2016-06-25T00:52:28.563Z,21.61
2016-06-25T00:53:28.559Z,21.64
2016-06-25T00:55:29.056Z,21.54
2016-06-25T00:57:29.179Z,21.47
2016-06-25T00:58:28.580Z,21.46
2016-06-25T00:59:29.216Z,21.47
2016-06-25T01:00:28.589Z,21.47
2016-06-25T01:01:27.975Z,21.38
2016-06-25T01:02:28.581Z,21.44
2016-06-25T01:03:28.592Z,21.43
2016-06-25T01:04:28.590Z,21.35
2016-06-25T01:05:29.182Z,21.4
2016-06-25T01:06:29.187Z,21.37
2016-06-25T01:07:28.594Z,21.4
2016-06-25T01:08:28.592Z,21.32
2016-06-25T01:09:27.983Z,21.43
2016-06-25T01:10:28.626Z,21.29
2016-06-25T01:11:28.632Z,21.37
2016-06-25T01:12:28.594Z,21.34
2016-06-25T01:13:29.215Z,21.4
2016-06-25T01:14:29.213Z,21.34
2016-06-25T01:15:28.602Z,21.34
2016-06-25T01:16:28.617Z,21.38
2016-06-25T01:17:29.217Z,21.35
2016-06-25T01:18:29.234Z,21.37
2016-06-25T01:19:28.016Z,21.31
2016-06-25T01:20:28.607Z,21.35
2016-06-25T01:21:28.612Z,21.35
2016-06-25T01:22:28.622Z,21.32
2016-06-25T01:23:29.276Z,21.35
2016-06-25T01:24:28.627Z,21.35
2016-06-25T01:25:28.624Z,21.42
2016-06-25T01:26:28.021Z,21.35
2016-06-25T01:27:28.023Z,21.34
2016-06-25T01:28:28.022Z,21.44
2016-06-25T01:29:28.628Z,21.49
2016-06-25T01:30:28.646Z,21.49
2016-06-25T01:31:28.662Z,21.49
2016-06-25T01:32:28.652Z,21.43
2016-06-25T01:33:28.640Z,21.49
2016-06-25T01:34:28.040Z,21.5
2016-06-25T01:35:29.265Z,21.49
2016-06-25T01:36:28.659Z,21.49
2016-06-25T01:37:28.654Z,21.47
2016-06-25T01:38:29.256Z,21.44
2016-06-25T01:39:28.642Z,21.47
2016-06-25T01:40:29.262Z,21.47
2016-06-25T01:41:29.289Z,21.47
2016-06-25T01:42:28.049Z,21.47
2016-06-25T01:43:29.327Z,21.42
2016-06-25T01:44:29.269Z,21.49
2016-06-25T01:45:29.267Z,21.49
2016-06-25T01:46:30.331Z,21.44
2016-06-25T01:47:31.108Z,21.46
2016-06-25T01:48:28.083Z,21.46
2016-06-25T01:49:29.301Z,21.47
2016-06-25T01:50:28.133Z,21.47
2016-06-25T01:51:28.713Z,21.58
2016-06-25T01:52:29.278Z,21.49
2016-06-25T01:53:28.689Z,21.47
2016-06-25T01:54:28.676Z,21.59
2016-06-25T01:55:31.518Z,21.46
2016-06-25T01:56:29.915Z,21.46
2016-06-25T01:57:30.706Z,21.47
2016-06-25T01:58:30.392Z,21.44
2016-06-25T01:59:29.656Z,21.46
2016-06-25T02:00:28.705Z,21.37
2016-06-25T02:01:28.687Z,21.42
2016-06-25T02:02:28.690Z,21.34
2016-06-25T02:03:29.944Z,21.34
2016-06-25T02:04:29.226Z,21.25
2016-06-25T02:05:28.820Z,21.25
2016-06-25T02:06:29.302Z,21.38
2016-06-25T02:07:28.707Z,21.32
2016-06-25T02:08:28.079Z,21.35
2016-06-25T02:09:28.095Z,21.37
2016-06-25T02:10:28.705Z,21.27
2016-06-25T02:11:28.834Z,21.38
2016-06-25T02:12:29.346Z,21.35
2016-06-25T02:13:28.448Z,21.25
2016-06-25T02:14:29.779Z,21.38
2016-06-25T02:15:43.581Z,21.29
2016-06-25T02:16:29.555Z,21.21
2016-06-25T02:17:28.447Z,21.29
2016-06-25T02:18:29.018Z,21.29
2016-06-25T02:19:28.884Z,21.27
2016-06-25T02:20:28.753Z,21.19
2016-06-25T02:21:29.329Z,21.17
2016-06-25T02:22:28.115Z,21.19
2016-06-25T02:23:28.733Z,21.25
2016-06-25T02:24:28.725Z,21.25
2016-06-25T02:25:28.128Z,21.21
2016-06-25T02:26:28.120Z,21.17
2016-06-25T02:27:28.122Z,21.22
2016-06-25T02:28:28.740Z,21.14
2016-06-25T02:29:29.349Z,21.16
2016-06-25T02:30:28.129Z,21.24
2016-06-25T02:31:29.361Z,21.24
2016-06-25T02:32:29.364Z,21.22
2016-06-25T02:33:28.734Z,21.14
2016-06-25T02:34:29.374Z,21.16
2016-06-25T02:35:28.144Z,21.12
2016-06-25T02:36:28.156Z,21.17
2016-06-25T02:37:29.349Z,21.16
2016-06-25T02:38:28.773Z,21.16
2016-06-25T02:39:28.771Z,21.17
2016-06-25T02:40:28.760Z,21.21
2016-06-25T02:41:28.753Z,21.16
2016-06-25T02:42:28.800Z,21.19
2016-06-25T02:43:28.767Z,21.17
2016-06-25T02:44:28.167Z,21.12
2016-06-25T02:45:29.372Z,21.12
2016-06-25T02:46:28.176Z,21.12
2016-06-25T02:47:28.769Z,21.17
2016-06-25T02:48:29.379Z,21.17
2016-06-25T02:49:29.376Z,21.21
2016-06-25T02:50:29.418Z,21.19
2016-06-25T02:51:28.175Z,21.19
2016-06-25T02:52:28.773Z,21.29
2016-06-25T02:53:29.385Z,21.29
2016-06-25T02:54:28.825Z,21.38
2016-06-25T02:55:29.384Z,21.31
2016-06-25T02:56:29.411Z,21.37
2016-06-25T02:57:29.385Z,21.42
2016-06-25T02:58:29.387Z,21.47
2016-06-25T02:59:28.807Z,21.47
2016-06-25T03:00:28.185Z,21.49
2016-06-25T03:01:28.797Z,21.47
2016-06-25T03:02:29.439Z,21.47
2016-06-25T03:03:29.405Z,21.52
2016-06-25T03:04:30.134Z,21.58
2016-06-25T03:05:29.396Z,21.58
2016-06-25T03:06:30.974Z,21.56
2016-06-25T03:07:28.797Z,21.58
2016-06-25T03:08:29.409Z,21.54
2016-06-25T03:09:29.503Z,21.62
2016-06-25T03:10:28.798Z,21.61
2016-06-25T03:11:29.419Z,21.61
2016-06-25T03:12:28.824Z,21.67
2016-06-25T03:13:28.805Z,21.67
2016-06-25T03:14:30.116Z,21.68
2016-06-25T03:15:30.109Z,21.69
2016-06-25T03:16:28.837Z,21.68
2016-06-25T03:17:28.983Z,21.74
2016-06-25T03:18:29.045Z,21.72
2016-06-25T03:19:29.731Z,21.72
2016-06-25T03:20:28.713Z,21.79
2016-06-25T03:22:29.594Z,21.84
2016-06-25T03:23:28.927Z,21.99
2016-06-25T03:24:28.838Z,21.91
2016-06-25T03:25:28.221Z,22
2016-06-25T03:26:29.447Z,22.2
2016-06-25T03:27:29.108Z,22.22
2016-06-25T03:28:29.615Z,22.27
2016-06-25T03:29:28.245Z,22.46
2016-06-25T03:30:29.474Z,22.61
2016-06-25T03:31:30.249Z,22.73
2016-06-25T03:32:30.434Z,22.83
2016-06-25T03:33:29.469Z,22.94
2016-06-25T03:34:28.853Z,23.05
2016-06-25T03:35:28.873Z,23.28
2016-06-25T03:36:28.249Z,23.38
2016-06-25T03:37:29.483Z,23.53
2016-06-25T03:38:28.883Z,23.78
2016-06-25T03:39:28.245Z,24
2016-06-25T03:40:28.868Z,24.2
2016-06-25T03:41:28.875Z,24.18
2016-06-25T03:42:28.880Z,24.31
2016-06-25T03:43:28.871Z,24.45
2016-06-25T03:44:29.498Z,24.53
2016-06-25T03:45:28.893Z,24.73
2016-06-25T03:46:28.890Z,24.84
2016-06-25T03:47:28.894Z,24.96
2016-06-25T03:48:29.513Z,25.15
2016-06-25T03:49:28.297Z,25.36
2016-06-25T03:50:28.904Z,25.42
2016-06-25T03:51:28.314Z,25.52
2016-06-25T03:52:28.311Z,25.65
2016-06-25T03:53:28.924Z,25.8
2016-06-25T03:54:28.941Z,25.91
2016-06-25T03:55:28.940Z,26.05
2016-06-25T03:56:29.563Z,26.13
2016-06-25T03:57:29.586Z,26.29
2016-06-25T03:58:28.959Z,26.37
2016-06-25T03:59:28.966Z,26.52
2016-06-25T04:00:28.372Z,26.51
2016-06-25T04:01:28.999Z,26.6
2016-06-25T04:02:29.587Z,26.8
2016-06-25T04:03:28.983Z,26.97
2016-06-25T04:04:28.999Z,27.09
2016-06-25T04:05:29.000Z,27.27
2016-06-25T04:06:29.621Z,27.55
2016-06-25T04:07:29.015Z,27.82
2016-06-25T04:08:29.019Z,28.02
2016-06-25T04:09:28.447Z,28.27
2016-06-25T04:10:29.658Z,28.37
2016-06-25T04:11:29.036Z,28.59
2016-06-25T04:12:29.057Z,28.67
2016-06-25T04:13:29.063Z,28.68
2016-06-25T04:14:28.473Z,28.74
2016-06-25T04:15:29.677Z,28.85
2016-06-25T04:16:28.480Z,29.08
2016-06-25T04:17:28.738Z,29.31
2016-06-25T04:18:28.505Z,29.55
2016-06-25T04:19:29.112Z,29.79
2016-06-25T04:20:29.127Z,29.92
2016-06-25T04:21:29.135Z,30.1
2016-06-25T04:22:29.747Z,30.31
2016-06-25T04:23:29.779Z,30.51
2016-06-25T04:24:29.389Z,30.84
2016-06-25T04:25:29.801Z,31.04
2016-06-25T04:26:30.713Z,31.16
2016-06-25T04:27:29.784Z,31.48
2016-06-25T04:28:30.430Z,31.75
2016-06-25T04:29:28.595Z,31.96
2016-06-25T04:30:28.617Z,32.23
2016-06-25T04:31:29.213Z,32.48
2016-06-25T04:32:31.211Z,32.7
2016-06-25T04:33:29.856Z,32.87
2016-06-25T04:34:29.874Z,33.12
2016-06-25T04:35:28.656Z,33.18
2016-06-25T04:36:29.523Z,33.34
2016-06-25T04:37:28.678Z,33.44
2016-06-25T04:38:28.699Z,33.72
2016-06-25T04:39:29.315Z,33.9
2016-06-25T04:40:29.648Z,34.05
2016-06-25T04:41:29.670Z,34.03
2016-06-25T04:42:29.954Z,33.93
2016-06-25T04:43:29.364Z,33.71
2016-06-25T04:44:29.378Z,33.59
2016-06-25T04:45:30.538Z,33.38
2016-06-25T04:46:29.536Z,33.23
2016-06-25T04:47:30.117Z,33.12
2016-06-25T04:48:29.413Z,33.15
2016-06-25T04:49:31.384Z,33.19
2016-06-25T04:50:29.433Z,33.19
2016-06-25T04:51:30.747Z,33.32
2016-06-25T04:52:30.415Z,33.29
2016-06-25T04:53:30.079Z,33.15
2016-06-25T04:54:30.302Z,33.32
2016-06-25T04:55:29.491Z,33.53
2016-06-25T04:56:30.371Z,33.71
2016-06-25T04:57:28.916Z,33.69
2016-06-25T04:58:30.143Z,33.79
2016-06-25T04:59:29.545Z,33.75
2016-06-25T05:00:29.557Z,33.72
2016-06-25T05:01:30.182Z,33.79
2016-06-25T05:02:28.971Z,33.91
2016-06-25T05:03:30.201Z,34.27
2016-06-25T05:04:30.218Z,34.46
2016-06-25T05:05:29.624Z,34.73
2016-06-25T05:06:29.642Z,34.78
2016-06-25T05:07:29.665Z,34.54
2016-06-25T05:08:29.650Z,34.61
2016-06-25T05:09:29.689Z,34.56
2016-06-25T05:10:30.306Z,34.8
2016-06-25T05:11:29.685Z,35.09
2016-06-25T05:12:29.717Z,35.43
2016-06-25T05:13:29.134Z,35.58
2016-06-25T05:14:29.746Z,35.9
2016-06-25T05:15:30.362Z,36.03
2016-06-25T05:16:29.183Z,36.12
2016-06-25T05:17:29.210Z,36.34
2016-06-25T05:18:29.191Z,36.62
2016-06-25T05:19:29.810Z,36.84
2016-06-25T05:20:30.440Z,37.05
2016-06-25T05:21:30.452Z,37.37
2016-06-25T05:22:29.865Z,37.43
2016-06-25T05:23:29.871Z,37.43
2016-06-25T05:24:29.295Z,37.46
2016-06-25T05:25:30.498Z,37.43
2016-06-25T05:26:30.525Z,37.44
2016-06-25T05:27:29.947Z,37.59
2016-06-25T05:28:30.546Z,37.69
2016-06-25T05:29:30.574Z,37.43
2016-06-25T05:30:29.964Z,37.17
2016-06-25T05:31:30.614Z,36.91
2016-06-25T05:32:30.600Z,36.73
2016-06-25T05:33:30.023Z,36.65
2016-06-25T05:34:30.642Z,36.71
2016-06-25T05:35:30.044Z,36.95
2016-06-25T05:36:30.063Z,37.25
2016-06-25T05:37:30.078Z,37.47
2016-06-25T05:38:30.115Z,37.75
2016-06-25T05:39:30.747Z,38.11
2016-06-25T05:40:30.134Z,38.4
2016-06-25T05:42:31.879Z,38.68
2016-06-25T05:43:30.177Z,38.83
2016-06-25T05:44:30.796Z,38.96
2016-06-25T05:45:30.220Z,39.11
2016-06-25T05:46:30.217Z,39.32
2016-06-25T05:47:30.874Z,39.57
2016-06-25T05:48:30.470Z,39.79
2016-06-25T05:49:30.284Z,39.88
2016-06-25T05:50:31.404Z,39.92
2016-06-25T05:51:31.467Z,40.12
2016-06-25T05:52:30.930Z,40.22
2016-06-25T05:53:30.932Z,40.32
2016-06-25T05:54:30.443Z,40.43
2016-06-25T05:55:30.978Z,40.46
2016-06-25T05:56:31.310Z,40.15
2016-06-25T05:57:31.003Z,39.64
2016-06-25T05:58:31.300Z,39.51
2016-06-25T05:59:31.400Z,39.51
2016-06-25T06:00:31.075Z,39.44
2016-06-25T06:01:31.437Z,39.4
2016-06-25T06:02:30.640Z,39.29
2016-06-25T06:03:30.010Z,38.99
2016-06-25T06:04:30.532Z,39.06
2016-06-25T06:05:30.543Z,39.3
2016-06-25T06:06:30.585Z,39.32
2016-06-25T06:07:30.580Z,39.43
2016-06-25T06:08:30.246Z,39.38
2016-06-25T06:09:31.220Z,39.55
2016-06-25T06:10:30.430Z,39.54
2016-06-25T06:11:31.303Z,39.64
2016-06-25T06:12:30.679Z,39.89
2016-06-25T06:13:30.697Z,40.16
2016-06-25T06:14:30.700Z,40.23
2016-06-25T06:15:30.744Z,40.39
2016-06-25T06:16:31.344Z,40.58
2016-06-25T06:17:30.974Z,40.72
2016-06-25T06:18:31.392Z,40.98
2016-06-25T06:19:30.189Z,41.11
2016-06-25T06:20:31.430Z,41.33
2016-06-25T06:21:30.850Z,41.57
2016-06-25T06:22:30.863Z,41.62
2016-06-25T06:23:30.874Z,41.69
2016-06-25T06:24:31.507Z,41.8
2016-06-25T06:25:31.527Z,41.54
2016-06-25T06:26:31.551Z,41.37
2016-06-25T06:27:30.950Z,41.36
2016-06-25T06:28:30.974Z,41.55
2016-06-25T06:29:31.635Z,41.58
2016-06-25T06:30:31.625Z,41.51
2016-06-25T06:31:31.024Z,41.52
2016-06-25T06:32:31.038Z,41.63
2016-06-25T06:33:31.680Z,41.8
2016-06-25T06:34:30.477Z,41.91
2016-06-25T06:35:31.709Z,41.9
2016-06-25T06:36:30.509Z,41.87
2016-06-25T06:37:31.151Z,42.02
2016-06-25T06:38:31.155Z,42.06
2016-06-25T06:39:31.175Z,42.2
2016-06-25T06:40:31.806Z,42.24
2016-06-25T06:41:31.201Z,42.3
2016-06-25T06:42:30.625Z,42.39
2016-06-25T06:43:30.649Z,42.36
2016-06-25T06:44:30.656Z,42.5
2016-06-25T06:45:31.919Z,42.62
2016-06-25T06:46:31.937Z,42.65
2016-06-25T06:47:31.329Z,42.68
2016-06-25T06:48:30.755Z,42.65
2016-06-25T06:49:31.989Z,42.7
2016-06-25T06:50:31.398Z,42.59
2016-06-25T06:51:31.403Z,42.35
2016-06-25T06:52:31.433Z,42.31
2016-06-25T06:53:31.451Z,42.27
2016-06-25T06:54:32.074Z,42.12
2016-06-25T06:55:31.490Z,41.86
2016-06-25T06:56:31.498Z,41.54
2016-06-25T06:57:30.923Z,41.41
2016-06-25T06:58:30.929Z,41.32
2016-06-25T06:59:32.182Z,41.35
2016-06-25T07:00:33.668Z,41.35
2016-06-25T07:01:47.813Z,41.37
2016-06-25T07:02:32.408Z,41.47
2016-06-25T07:03:32.248Z,41.47
2016-06-25T07:04:32.768Z,41.52
2016-06-25T07:05:31.811Z,41.49
2016-06-25T07:06:31.698Z,41.18
2016-06-25T07:07:32.339Z,40.96
2016-06-25T07:08:32.339Z,41.01
2016-06-25T07:09:33.453Z,41.06
2016-06-25T07:10:33.789Z,41.18
2016-06-25T07:11:32.596Z,41.3
2016-06-25T07:12:32.438Z,41.3
2016-06-25T07:13:32.602Z,41.36
2016-06-25T07:14:32.030Z,41.44
2016-06-25T07:15:31.869Z,41.48
2016-06-25T07:16:32.510Z,41.51
2016-06-25T07:17:33.254Z,41.55
2016-06-25T07:18:34.148Z,41.54
2016-06-25T07:19:33.405Z,41.41
2016-06-25T07:20:32.604Z,41.29
2016-06-25T07:21:32.538Z,41.08
2016-06-25T07:22:32.708Z,40.91
2016-06-25T07:23:31.416Z,40.73
2016-06-25T07:24:31.536Z,40.5
2016-06-25T07:25:32.076Z,40.41
2016-06-25T07:26:33.590Z,40.27
2016-06-25T07:27:32.106Z,40.12
2016-06-25T07:28:32.125Z,40.06
2016-06-25T07:29:32.137Z,39.85
2016-06-25T07:30:46.431Z,39.89
2016-06-25T07:31:31.563Z,39.92
2016-06-25T07:32:32.197Z,40.03
2016-06-25T07:33:31.711Z,40.18
2016-06-25T07:34:31.624Z,40.27
2016-06-25T07:35:32.262Z,40.38
2016-06-25T07:36:31.661Z,40
2016-06-25T07:37:32.333Z,39.89
2016-06-25T07:38:32.321Z,40
2016-06-25T07:39:32.335Z,39.94
2016-06-25T07:40:32.383Z,39.82
2016-06-25T07:41:32.380Z,39.73
2016-06-25T07:42:32.997Z,39.77
2016-06-25T07:43:31.808Z,39.86
2016-06-25T07:44:31.818Z,39.97
2016-06-25T07:45:33.103Z,39.89
2016-06-25T07:46:32.468Z,39.79
2016-06-25T07:47:31.886Z,39.7
2016-06-25T07:48:33.108Z,39.75
2016-06-25T07:49:31.913Z,39.91
2016-06-25T07:50:32.566Z,40.07
2016-06-25T07:51:31.962Z,40.27
2016-06-25T07:52:32.614Z,40.34
2016-06-25T07:53:32.610Z,40.5
2016-06-25T07:54:32.044Z,40.62
2016-06-25T07:55:32.651Z,40.8
2016-06-25T07:56:33.276Z,40.91
2016-06-25T07:57:32.687Z,41.04
2016-06-25T07:58:32.699Z,41.11
2016-06-25T07:59:33.330Z,41.25
2016-06-25T08:00:32.140Z,41.32
2016-06-25T08:01:32.157Z,41.32
2016-06-25T08:02:32.180Z,41.18
2016-06-25T08:03:32.205Z,41.16
2016-06-25T08:04:32.234Z,41.28
2016-06-25T08:05:32.246Z,41.35
2016-06-25T08:06:33.483Z,41.41
2016-06-25T08:07:32.886Z,41.45
2016-06-25T08:08:32.911Z,41.39
2016-06-25T08:09:33.546Z,41.33
2016-06-25T08:10:33.582Z,41.13
2016-06-25T08:11:33.590Z,41.1
2016-06-25T08:12:32.990Z,41.13
2016-06-25T08:13:33.621Z,41.11
2016-06-25T08:14:33.042Z,41.2
2016-06-25T08:15:33.063Z,41.1
2016-06-25T08:16:33.116Z,40.76
2016-06-25T08:17:33.854Z,40.26
2016-06-25T08:18:35.059Z,40.18
2016-06-25T08:19:33.745Z,40.2
2016-06-25T08:20:33.826Z,40.16
2016-06-25T08:21:33.354Z,40.25
2016-06-25T08:22:34.170Z,40.31
2016-06-25T08:23:33.883Z,40.19
2016-06-25T08:24:32.660Z,39.82
2016-06-25T08:25:34.214Z,39.69
2016-06-25T08:26:33.316Z,39.55
2016-06-25T08:27:34.747Z,39.66
2016-06-25T08:28:33.944Z,39.62
2016-06-25T08:29:34.842Z,39.82
2016-06-25T08:30:35.090Z,39.79
2016-06-25T08:31:34.543Z,39.96
2016-06-25T08:32:33.394Z,40.06
2016-06-25T08:33:33.267Z,40.07
2016-06-25T08:34:33.668Z,40.1
2016-06-25T08:35:48.742Z,40.12
2016-06-25T08:36:34.687Z,40.15
2016-06-25T08:37:33.854Z,40.06
2016-06-25T08:38:34.146Z,40.12
2016-06-25T08:39:32.921Z,40.1
2016-06-25T08:40:33.812Z,39.78
2016-06-25T08:41:32.971Z,39.72
2016-06-25T08:42:33.289Z,39.62
2016-06-25T08:43:33.628Z,39.78
2016-06-25T08:44:47.909Z,39.75
2016-06-25T08:45:35.680Z,39.72
2016-06-25T08:46:34.643Z,39.79
2016-06-25T08:47:34.614Z,39.84
2016-06-25T08:48:34.318Z,39.84
2016-06-25T08:49:33.736Z,39.84
2016-06-25T08:50:33.759Z,39.92
2016-06-25T08:51:34.398Z,39.91
2016-06-25T08:52:33.804Z,39.96
2016-06-25T08:53:33.224Z,39.94
2016-06-25T08:54:33.239Z,40
2016-06-25T08:55:33.867Z,40.04
2016-06-25T08:56:33.279Z,40.1
2016-06-25T08:57:34.514Z,40.04
2016-06-25T08:58:33.939Z,39.94
2016-06-25T08:59:34.577Z,39.77
2016-06-25T09:00:34.005Z,39.52
2016-06-25T09:01:34.611Z,39.26
2016-06-25T09:02:34.601Z,39.11
2016-06-25T09:03:34.020Z,38.81
2016-06-25T09:04:33.431Z,38.71
2016-06-25T09:05:33.435Z,38.52
2016-06-25T09:06:34.689Z,38.23
2016-06-25T09:07:34.088Z,37.97
2016-06-25T09:08:34.107Z,37.76
2016-06-25T09:09:34.121Z,37.59
2016-06-25T09:10:33.541Z,37.31
2016-06-25T09:11:34.150Z,37.17
2016-06-25T09:12:34.176Z,36.91
2016-06-25T09:13:33.583Z,36.83
2016-06-25T09:14:33.594Z,36.68
2016-06-25T09:15:34.226Z,36.59
2016-06-25T09:16:33.629Z,36.37
2016-06-25T09:17:34.353Z,36.28
2016-06-25T09:18:33.675Z,36.08
2016-06-25T09:19:34.281Z,36.13
2016-06-25T09:20:34.318Z,36.12
2016-06-25T09:21:33.707Z,36.12
2016-06-25T09:22:33.728Z,36.08
2016-06-25T09:23:34.345Z,35.96
2016-06-25T09:24:34.981Z,35.82
2016-06-25T09:25:34.382Z,35.72
2016-06-25T09:26:34.385Z,35.62
2016-06-25T09:27:35.012Z,35.65
2016-06-25T09:28:34.414Z,35.62
2016-06-25T09:29:35.027Z,35.55
2016-06-25T09:30:34.472Z,35.29
2016-06-25T09:31:33.843Z,35.09
2016-06-25T09:32:35.094Z,35.11
2016-06-25T09:33:34.473Z,34.92
2016-06-25T09:34:34.514Z,34.84
2016-06-25T09:35:34.522Z,34.73
2016-06-25T09:36:36.112Z,34.58
2016-06-25T09:38:35.361Z,34.56
2016-06-25T09:39:36.391Z,34.53
2016-06-25T09:40:33.951Z,34.42
2016-06-25T09:41:34.587Z,34.49
2016-06-25T09:42:34.586Z,34.52
2016-06-25T09:43:33.976Z,34.4
2016-06-25T09:44:35.211Z,34.5
2016-06-25T09:45:35.231Z,34.39
2016-06-25T09:46:35.874Z,34.43
2016-06-25T09:47:35.950Z,34.4
2016-06-25T09:48:35.057Z,34.39
2016-06-25T09:49:35.519Z,34.39
2016-06-25T09:50:35.312Z,34.35
2016-06-25T09:51:35.291Z,34.37
2016-06-25T09:52:35.299Z,34.31
2016-06-25T09:53:35.572Z,34.4
2016-06-25T09:54:35.337Z,34.37
2016-06-25T09:55:34.935Z,34.37
2016-06-25T09:56:35.445Z,34.34
2016-06-25T09:57:34.759Z,34.37
2016-06-25T09:58:34.843Z,34.44
2016-06-25T09:59:35.407Z,34.47
2016-06-25T10:00:34.176Z,34.42
2016-06-25T10:01:34.990Z,34.5
2016-06-25T10:02:34.822Z,34.5
2016-06-25T10:03:35.126Z,34.54
2016-06-25T10:04:35.647Z,34.59
2016-06-25T10:05:35.853Z,34.7
2016-06-25T10:06:34.858Z,34.75
2016-06-25T10:07:50.137Z,34.91
2016-06-25T10:08:35.216Z,34.8
2016-06-25T10:09:34.889Z,34.89
2016-06-25T10:10:34.899Z,34.94
2016-06-25T10:11:35.528Z,35.06
2016-06-25T10:12:35.525Z,35.06
2016-06-25T10:13:35.553Z,35.15
2016-06-25T10:14:34.946Z,35.29
2016-06-25T10:15:34.354Z,35.34
2016-06-25T10:16:34.969Z,35.48
2016-06-25T10:17:35.001Z,35.59
2016-06-25T10:18:34.985Z,35.6
2016-06-25T10:19:35.622Z,35.62
2016-06-25T10:20:35.621Z,35.8
2016-06-25T10:21:34.415Z,35.77
2016-06-25T10:22:35.644Z,35.77
2016-06-25T10:23:34.489Z,35.81
2016-06-25T10:24:35.673Z,35.87
2016-06-25T10:25:35.687Z,35.85
2016-06-25T10:26:35.697Z,35.92
2016-06-25T10:27:34.483Z,35.85
2016-06-25T10:28:35.707Z,35.89
2016-06-25T10:29:37.255Z,35.87
2016-06-25T10:30:35.733Z,35.89
2016-06-25T10:31:34.535Z,35.81
2016-06-25T10:32:34.531Z,35.89
2016-06-25T10:33:35.170Z,35.96
2016-06-25T10:34:35.795Z,36
2016-06-25T10:35:35.825Z,36.01
2016-06-25T10:36:35.812Z,36.08
2016-06-25T10:37:34.611Z,36.15
2016-06-25T10:38:35.828Z,36.27
2016-06-25T10:39:35.853Z,36.2
2016-06-25T10:40:35.239Z,36.35
2016-06-25T10:41:34.640Z,36.32
2016-06-25T10:42:35.864Z,36.38
2016-06-25T10:43:35.874Z,36.46
2016-06-25T10:44:35.279Z,36.49
2016-06-25T10:45:34.695Z,36.59
2016-06-25T10:46:35.326Z,36.68
2016-06-25T10:47:35.320Z,36.62
2016-06-25T10:48:34.717Z,36.54
2016-06-25T10:49:35.348Z,36.53
2016-06-25T10:50:34.747Z,36.6
2016-06-25T10:51:35.394Z,36.59
2016-06-25T10:52:34.787Z,36.53
2016-06-25T10:53:34.795Z,36.57
2016-06-25T10:54:34.797Z,36.32
2016-06-25T10:55:36.284Z,36.37
2016-06-25T10:56:36.341Z,36.32
2016-06-25T10:57:36.249Z,36.39
2016-06-25T10:58:35.203Z,36.38
2016-06-25T10:59:35.954Z,36.34
2016-06-25T11:00:35.789Z,36.35
2016-06-25T11:01:35.478Z,36.34
2016-06-25T11:02:36.111Z,36.43
2016-06-25T11:03:35.513Z,36.46
2016-06-25T11:04:36.457Z,36.41
2016-06-25T11:06:34.953Z,36.41
2016-06-25T11:07:35.554Z,36.44
2016-06-25T11:08:36.743Z,36.49
2016-06-25T11:09:35.594Z,36.65
2016-06-25T11:10:34.991Z,36.71
2016-06-25T11:11:35.007Z,36.69
2016-06-25T11:13:35.866Z,36.71
2016-06-25T11:14:36.314Z,36.59
2016-06-25T11:15:36.320Z,36.6
2016-06-25T11:16:35.684Z,36.51
2016-06-25T11:17:35.888Z,36.47
2016-06-25T11:18:35.803Z,36.37
2016-06-25T11:19:35.732Z,36.34
2016-06-25T11:20:35.754Z,36.32
2016-06-25T11:21:35.789Z,36.22
2016-06-25T11:22:36.396Z,36.28
2016-06-25T11:23:36.380Z,36.12
2016-06-25T11:24:36.389Z,36.03
2016-06-25T11:25:35.798Z,35.97
2016-06-25T11:26:35.789Z,35.94
2016-06-25T11:27:35.813Z,35.78
2016-06-25T11:28:35.831Z,35.7
2016-06-25T11:29:35.260Z,35.56
2016-06-25T11:30:35.840Z,35.59
2016-06-25T11:31:36.488Z,35.68
2016-06-25T11:32:35.877Z,35.68
2016-06-25T11:33:35.288Z,35.8
2016-06-25T11:34:35.273Z,35.71
2016-06-25T11:35:35.903Z,35.87
2016-06-25T11:36:35.925Z,35.93
2016-06-25T11:37:36.534Z,35.97
2016-06-25T11:38:35.962Z,36.15
2016-06-25T11:39:36.551Z,36.17
2016-06-25T11:40:35.951Z,36.23
2016-06-25T11:41:35.976Z,36.29
2016-06-25T11:42:35.370Z,36.32
2016-06-25T11:43:36.609Z,36.38
2016-06-25T11:44:36.629Z,36.41
2016-06-25T11:45:36.625Z,36.5
2016-06-25T11:46:35.415Z,36.57
2016-06-25T11:47:36.060Z,36.57
2016-06-25T11:48:36.056Z,36.53
2016-06-25T11:49:36.067Z,36.51
2016-06-25T11:50:36.073Z,36.51
2016-06-25T11:51:36.100Z,36.38
2016-06-25T11:52:36.096Z,36.59
2016-06-25T11:53:36.132Z,36.56
2016-06-25T11:54:35.518Z,36.66
2016-06-25T11:55:36.741Z,36.66
2016-06-25T11:56:35.542Z,36.75
2016-06-25T11:57:35.553Z,36.71
2016-06-25T11:58:36.170Z,36.8
2016-06-25T11:59:35.572Z,36.95
2016-06-25T12:00:36.815Z,36.95
2016-06-25T12:01:35.599Z,36.88
2016-06-25T12:02:36.227Z,36.99
2016-06-25T12:03:35.633Z,37.05
2016-06-25T12:04:36.237Z,37.09
2016-06-25T12:05:36.857Z,37.12
2016-06-25T12:06:36.886Z,37.18
2016-06-25T12:07:36.886Z,37.22
2016-06-25T12:08:36.319Z,37.24
2016-06-25T12:09:35.701Z,37.25
2016-06-25T12:10:36.926Z,37.17
2016-06-25T12:11:36.929Z,37.1
2016-06-25T12:12:36.950Z,37.15
2016-06-25T12:13:37.160Z,37.2
2016-06-25T12:14:36.979Z,37.17
2016-06-25T12:15:38.375Z,37.18
2016-06-25T12:16:36.240Z,37.25
2016-06-25T12:17:36.393Z,37.17
2016-06-25T12:18:35.795Z,37.15
2016-06-25T12:19:36.419Z,37.18
2016-06-25T12:20:36.435Z,37.17
2016-06-25T12:21:37.062Z,37.03
2016-06-25T12:22:37.161Z,37.05
2016-06-25T12:23:37.185Z,37.05
2016-06-25T12:24:36.757Z,36.91
2016-06-25T12:25:38.274Z,36.87
2016-06-25T12:26:36.511Z,36.93
2016-06-25T12:27:36.528Z,36.83
2016-06-25T12:28:36.548Z,36.81
2016-06-25T12:29:37.538Z,36.8
2016-06-25T12:30:38.019Z,36.72
2016-06-25T12:31:36.560Z,36.68
2016-06-25T12:32:35.974Z,36.6
2016-06-25T12:33:37.297Z,36.59
2016-06-25T12:34:36.597Z,36.57
2016-06-25T12:35:36.609Z,36.62
2016-06-25T12:36:37.320Z,36.6
2016-06-25T12:37:37.499Z,36.65
2016-06-25T12:38:37.413Z,36.56
2016-06-25T12:39:36.655Z,36.54
2016-06-25T12:40:37.287Z,36.62
2016-06-25T12:41:36.678Z,36.54
2016-06-25T12:42:37.288Z,36.6
2016-06-25T12:43:37.655Z,36.59
2016-06-25T12:44:36.728Z,36.5
2016-06-25T12:45:37.638Z,36.44
2016-06-25T12:46:36.792Z,36.41
2016-06-25T12:47:36.763Z,36.47
2016-06-25T12:48:36.771Z,36.38
2016-06-25T12:49:37.374Z,36.38
2016-06-25T12:50:37.390Z,36.35
2016-06-25T12:51:36.793Z,36.31
2016-06-25T12:52:37.420Z,36.32
2016-06-25T12:53:36.827Z,36.25
2016-06-25T12:54:36.837Z,36.22
2016-06-25T12:55:36.838Z,36.28
2016-06-25T12:56:36.862Z,36.31
2016-06-25T12:57:36.885Z,36.37
2016-06-25T12:58:36.277Z,36.32
2016-06-25T12:59:36.266Z,36.37
2016-06-25T13:00:36.904Z,36.41
2016-06-25T13:01:36.319Z,36.44
2016-06-25T13:02:36.312Z,36.39
2016-06-25T13:03:36.320Z,36.46
2016-06-25T13:04:37.558Z,36.37